Time;durP1;ratioP1;P1;durP2;ratioP2;P2;SDS_P1;SDS_P2;PMS_P1;PMS_P2;Temp;Humidity;BMP_temperature;BMP_pressure;BME280_temperature;BME280_humidity;BME280_pressure;Samples;Min_cycle;Max_cycle;Signal;HPM_P1;HPM_P2
2023/10/19 00:00:40;;;;;;;13.95;5.95;;;;;;;13.60;44.90;99083.00;4404626;32;34606;-69
2023/10/19 00:03:08;;;;;;;8.90;5.77;;;;;;;13.48;45.02;99083.19;4404638;32;33983;-69
2023/10/19 00:05:35;;;;;;;12.60;5.62;;;;;;;13.49;45.25;99073.28;4404910;32;33408;-69
2023/10/19 00:08:07;;;;;;;8.48;5.25;;;;;;;13.53;45.14;99072.00;4403185;32;35570;-69
2023/10/19 00:10:36;;;;;;;17.08;6.25;;;;;;;13.43;45.38;99069.34;4405337;32;35020;-68
2023/10/19 00:13:05;;;;;;;9.75;4.97;;;;;;;13.06;46.51;99063.97;4403754;32;33736;-69
2023/10/19 00:15:34;;;;;;;9.70;5.75;;;;;;;13.15;46.46;99065.75;4405277;32;34933;-69
2023/10/19 00:18:20;;;;;;;11.63;6.07;;;;;;;13.22;46.03;99057.97;4385938;32;33699;-68
2023/10/19 00:20:53;;;;;;;10.35;4.82;;;;;;;13.06;47.01;99055.91;4374918;32;34017;-69
2023/10/19 00:23:30;;;;;;;14.23;6.28;;;;;;;13.09;46.52;99052.06;4386088;32;34018;-68
2023/10/19 00:25:59;;;;;;;5.22;3.97;;;;;;;12.83;47.32;99052.72;4387225;32;33257;-68
2023/10/19 00:28:27;;;;;;;9.55;4.93;;;;;;;12.53;48.02;99046.59;4387511;32;33552;-68
2023/10/19 00:31:03;;;;;;;4.40;3.03;;;;;;;12.52;48.17;99039.53;4378540;32;35518;-68
2023/10/19 00:33:32;;;;;;;11.45;6.70;;;;;;;12.62;48.70;99041.34;4387489;32;35000;-68
2023/10/19 00:36:06;;;;;;;10.35;5.32;;;;;;;12.73;48.22;99036.66;4385251;32;32265;-68
2023/10/19 00:41:21;;;;;;;12.88;5.50;;;;;;;12.56;48.43;99040.94;4387791;32;34828;-69
2023/10/19 00:43:49;;;;;;;11.15;4.87;;;;;;;12.46;48.84;99037.44;4385145;32;34205;-68
2023/10/19 00:48:58;;;;;;;5.65;3.92;;;;;;;12.43;49.51;99026.13;4393869;32;33691;-68
2023/10/19 00:54:10;;;;;;;10.02;4.95;;;;;;;12.46;49.32;99015.13;4404766;32;34943;-68
2023/10/19 00:56:41;;;;;;;14.85;7.25;;;;;;;12.44;49.51;99011.72;4393001;32;33866;-68
2023/10/19 00:59:15;;;;;;;8.70;6.30;;;;;;;12.61;49.21;99013.62;4404990;32;35011;-68
2023/10/19 01:01:48;;;;;;;22.40;7.07;;;;;;;12.72;49.93;99004.59;4404545;32;34853;-68
2023/10/19 01:04:22;;;;;;;18.67;6.53;;;;;;;12.74;49.65;99008.78;4396047;32;35187;-68
2023/10/19 01:07:11;;;;;;;14.05;7.97;;;;;;;13.03;49.79;99006.03;4402021;32;32031;-68
2023/10/19 01:09:40;;;;;;;23.75;8.07;;;;;;;12.91;50.31;99003.66;4406252;32;34535;-69
2023/10/19 01:12:33;;;;;;;11.73;7.45;;;;;;;12.88;51.20;99002.13;4401150;32;35003;-68
2023/10/19 01:15:13;;;;;;;12.93;6.70;;;;;;;13.01;51.60;98999.09;4406201;32;35171;-68
2023/10/19 01:17:43;;;;;;;7.12;4.68;;;;;;;13.17;51.68;99004.66;4404496;32;33637;-67
2023/10/19 01:20:20;;;;;;;7.72;5.25;;;;;;;13.11;52.10;99002.59;4405586;32;33975;-68
2023/10/19 01:28:28;;;;;;;8.77;5.20;;;;;;;12.82;53.44;98990.13;4404626;32;33477;-67
2023/10/19 01:30:56;;;;;;;7.22;4.60;;;;;;;12.53;54.40;98976.81;4405474;32;33852;-67
2023/10/19 01:33:24;;;;;;;13.30;6.07;;;;;;;12.57;54.49;98972.81;4404890;32;35011;-67
2023/10/19 01:38:39;;;;;;;12.85;7.68;;;;;;;12.41;56.34;98971.75;4404196;32;33207;-67
2023/10/19 01:41:13;;;;;;;7.68;4.87;;;;;;;12.44;56.57;98964.25;4403867;32;34695;-68
2023/10/19 01:43:42;;;;;;;13.50;5.95;;;;;;;12.42;57.26;98963.53;4404121;32;34639;-67
2023/10/19 01:46:11;;;;;;;11.57;6.55;;;;;;;12.47;57.22;98955.91;4406041;32;34338;-67
2023/10/19 01:48:44;;;;;;;13.88;7.62;;;;;;;12.47;57.66;98955.06;4405823;32;34470;-67
2023/10/19 01:51:15;;;;;;;10.98;5.97;;;;;;;12.43;58.04;98953.69;4404463;32;33467;-67
2023/10/19 01:53:45;;;;;;;11.45;5.20;;;;;;;12.58;57.70;98953.06;4405969;32;34083;-67
2023/10/19 01:56:14;;;;;;;13.95;5.97;;;;;;;12.20;58.93;98945.09;4403648;32;33594;-68
2023/10/19 01:58:46;;;;;;;13.82;7.70;;;;;;;12.34;58.31;98948.19;4405458;32;34569;-67
2023/10/19 02:03:52;;;;;;;11.52;6.37;;;;;;;12.00;59.25;98937.06;4404270;32;35274;-67
2023/10/19 02:06:21;;;;;;;11.20;7.35;;;;;;;11.75;60.51;98934.94;4402642;32;33978;-67
2023/10/19 02:08:51;;;;;;;9.35;6.05;;;;;;;11.88;59.85;98931.03;4406276;32;34384;-67
2023/10/19 02:11:22;;;;;;;12.30;8.20;;;;;;;11.82;60.21;98928.91;4404702;32;35277;-67
2023/10/19 02:13:55;;;;;;;16.58;7.87;;;;;;;11.69;60.82;98922.16;4404287;32;35087;-67
2023/10/19 02:16:23;;;;;;;10.82;6.37;;;;;;;11.71;60.64;98918.31;4404520;32;34759;-67
2023/10/19 02:18:51;;;;;;;13.95;9.23;;;;;;;11.65;61.26;98926.91;4404917;32;35776;-68
2023/10/19 02:21:32;;;;;;;19.70;11.23;;;;;;;11.49;62.00;98922.12;4405734;32;34123;-68
2023/10/19 02:24:00;;;;;;;12.32;7.82;;;;;;;11.26;62.72;98923.38;4405782;32;33803;-68
2023/10/19 02:26:28;;;;;;;10.68;6.62;;;;;;;11.15;63.56;98925.19;4405856;32;34868;-68
2023/10/19 02:28:56;;;;;;;10.10;5.22;;;;;;;11.15;63.65;98910.97;4406286;32;33538;-68
2023/10/19 02:31:25;;;;;;;16.95;8.82;;;;;;;11.36;63.22;98909.03;4403835;32;33485;-68
2023/10/19 02:34:00;;;;;;;12.27;8.15;;;;;;;11.46;63.49;98902.78;4405551;32;35487;-68
2023/10/19 02:36:30;;;;;;;13.77;6.75;;;;;;;11.81;62.11;98897.72;4403969;32;35173;-68
2023/10/19 02:39:09;;;;;;;14.30;7.43;;;;;;;11.67;62.55;98890.09;4404516;32;33325;-68
2023/10/19 02:41:39;;;;;;;11.70;7.15;;;;;;;11.66;62.53;98881.22;4404546;32;33692;-67
2023/10/19 02:46:57;;;;;;;21.30;9.15;;;;;;;11.60;63.40;98879.09;4403611;32;34829;-68
2023/10/19 02:49:28;;;;;;;13.93;7.25;;;;;;;11.58;63.45;98881.06;4406617;32;33255;-68
2023/10/19 02:52:04;;;;;;;10.75;7.00;;;;;;;11.68;63.51;98875.69;4391765;32;33625;-67
2023/10/19 02:54:33;;;;;;;15.77;9.98;;;;;;;11.61;63.65;98879.94;4405125;32;33799;-68
2023/10/19 02:57:06;;;;;;;8.57;7.53;;;;;;;11.87;63.15;98867.66;4404019;32;33261;-67
2023/10/19 02:59:35;;;;;;;9.45;6.50;;;;;;;11.98;62.76;98865.81;4405206;32;33675;-68
2023/10/19 03:02:15;;;;;;;12.77;6.75;;;;;;;11.74;64.14;98861.72;4404531;32;33608;-67
2023/10/19 03:04:43;;;;;;;27.00;12.40;;;;;;;11.95;62.94;98863.44;4406226;32;34019;-67
2023/10/19 03:07:15;;;;;;;22.02;12.32;;;;;;;11.92;63.18;98858.34;4403620;32;32175;-68
2023/10/19 03:09:49;;;;;;;15.20;10.88;;;;;;;12.05;62.73;98854.38;4404724;32;34736;-67
2023/10/19 03:12:18;;;;;;;18.42;9.43;;;;;;;11.58;64.58;98856.09;4403975;32;33503;-68
2023/10/19 03:14:47;;;;;;;23.87;11.30;;;;;;;12.09;63.02;98853.06;4403935;32;33618;-67
2023/10/19 03:17:15;;;;;;;16.35;10.63;;;;;;;12.09;62.41;98834.28;4401075;32;34247;-67
2023/10/19 03:19:44;;;;;;;13.88;8.98;;;;;;;12.10;62.45;98832.44;4406142;32;33247;-70
2023/10/19 03:22:12;;;;;;;14.10;8.77;;;;;;;11.99;63.26;98827.28;4403723;32;34658;-69
2023/10/19 03:24:43;;;;;;;21.85;13.43;;;;;;;11.96;63.33;98823.06;4405304;32;35130;-66
2023/10/19 03:27:16;;;;;;;14.98;8.43;;;;;;;11.95;63.27;98824.06;4402709;32;33906;-67
2023/10/19 03:29:46;;;;;;;11.15;7.70;;;;;;;11.90;63.52;98826.31;4404459;32;34700;-67
2023/10/19 03:32:15;;;;;;;13.95;9.10;;;;;;;11.97;63.21;98818.53;4394258;32;33331;-67
2023/10/19 03:34:47;;;;;;;15.35;9.30;;;;;;;11.95;63.09;98807.13;4405800;32;35104;-68
2023/10/19 03:37:19;;;;;;;12.20;5.93;;;;;;;11.84;63.48;98802.72;4405314;32;35258;-68
2023/10/19 03:39:48;;;;;;;11.27;7.15;;;;;;;11.76;63.90;98797.25;4374367;32;33413;-68
2023/10/19 03:42:16;;;;;;;15.38;10.05;;;;;;;11.71;64.10;98799.53;4362142;32;34051;-68
2023/10/19 03:44:51;;;;;;;12.27;7.95;;;;;;;11.35;65.55;98805.50;4372273;32;33769;-68
2023/10/19 03:47:20;;;;;;;18.60;7.57;;;;;;;11.58;64.44;98803.34;4368825;32;35018;-67
2023/10/19 03:49:48;;;;;;;12.60;8.60;;;;;;;11.37;65.68;98805.37;4372063;32;33312;-68
2023/10/19 03:54:44;;;;;;;15.27;10.13;;;;;;;11.30;65.52;98801.56;4372326;32;33573;-68
2023/10/19 03:57:19;;;;;;;17.10;10.70;;;;;;;11.54;64.68;98799.28;4379262;32;33921;-67
2023/10/19 03:59:53;;;;;;;19.92;10.77;;;;;;;11.41;65.29;98796.06;4372250;32;33082;-66
2023/10/19 04:02:20;;;;;;;17.90;9.85;;;;;;;11.22;65.89;98794.25;4369321;32;33449;-66
2023/10/19 04:04:50;;;;;;;16.58;9.85;;;;;;;11.02;66.72;98787.22;4381400;32;33797;-67
2023/10/19 04:07:22;;;;;;;11.18;7.75;;;;;;;11.03;66.71;98778.19;4378797;32;33729;-67
2023/10/19 04:12:41;;;;;;;16.70;9.38;;;;;;;11.32;65.97;98770.12;4404627;32;35022;-67
2023/10/19 04:15:15;;;;;;;20.80;10.73;;;;;;;11.31;65.95;98760.41;4405173;32;33618;-67
2023/10/19 04:17:47;;;;;;;16.75;8.77;;;;;;;11.17;66.70;98754.50;4401937;32;33703;-67
2023/10/19 04:22:47;;;;;;;22.60;11.90;;;;;;;11.36;66.06;98756.31;4404751;32;33621;-67
2023/10/19 04:25:18;;;;;;;13.90;9.68;;;;;;;11.71;65.04;98749.44;4404541;32;34966;-67
2023/10/19 04:27:47;;;;;;;26.48;8.23;;;;;;;11.59;65.13;98740.75;4404599;32;35559;-67
2023/10/19 04:30:15;;;;;;;16.50;8.50;;;;;;;11.42;65.43;98736.13;4405528;32;33487;-67
2023/10/19 04:32:45;;;;;;;23.58;13.13;;;;;;;11.16;66.58;98725.16;4405505;32;33542;-66
2023/10/19 04:35:21;;;;;;;18.85;9.05;;;;;;;10.96;67.47;98724.34;4406269;32;33736;-66
2023/10/19 04:37:53;;;;;;;11.30;7.57;;;;;;;11.58;65.92;98732.84;4401433;32;35141;-67
2023/10/19 04:40:22;;;;;;;9.75;8.02;;;;;;;11.52;65.30;98722.69;4404801;32;33441;-66
2023/10/19 04:42:52;;;;;;;13.57;8.20;;;;;;;11.32;66.06;98732.62;4403072;32;34497;-67
2023/10/19 04:45:19;;;;;;;15.23;8.45;;;;;;;11.16;66.81;98726.00;4403105;32;34930;-67
2023/10/19 04:47:54;;;;;;;18.85;10.73;;;;;;;11.12;66.71;98723.78;4405366;32;34041;-66
2023/10/19 04:50:23;;;;;;;11.02;6.95;;;;;;;11.35;66.03;98714.41;4402419;32;33351;-67
2023/10/19 04:52:50;;;;;;;10.20;6.37;;;;;;;11.16;66.85;98717.97;4404063;32;33535;-68
2023/10/19 04:55:18;;;;;;;17.50;8.65;;;;;;;11.39;66.03;98714.97;4405878;32;33926;-69
2023/10/19 04:57:46;;;;;;;18.95;10.02;;;;;;;11.40;65.95;98720.19;4402869;32;35185;-68
2023/10/19 05:00:15;;;;;;;12.27;8.05;;;;;;;11.21;66.70;98725.59;4404937;32;33617;-68
2023/10/19 05:02:42;;;;;;;16.37;8.68;;;;;;;11.11;66.96;98720.25;4403007;32;33493;-68
2023/10/19 05:05:11;;;;;;;23.25;10.55;;;;;;;11.22;66.88;98721.09;4404063;32;33849;-68
2023/10/19 05:07:38;;;;;;;14.93;10.20;;;;;;;11.12;66.33;98708.53;4404640;32;33613;-68
2023/10/19 05:10:06;;;;;;;15.90;10.75;;;;;;;11.05;67.25;98698.56;4407017;32;34617;-68
2023/10/19 05:12:34;;;;;;;19.55;11.30;;;;;;;11.10;67.30;98705.16;4403860;32;33540;-68
2023/10/19 05:15:02;;;;;;;10.23;7.40;;;;;;;11.26;66.64;98712.59;4403840;32;34076;-68
2023/10/19 05:17:30;;;;;;;11.80;8.50;;;;;;;11.37;66.26;98703.56;4402796;32;33916;-67
2023/10/19 05:19:58;;;;;;;11.48;6.68;;;;;;;11.21;66.77;98706.00;4402408;32;34426;-67
2023/10/19 05:22:29;;;;;;;8.77;5.30;;;;;;;11.04;67.86;98702.22;4404686;32;33469;-67
2023/10/19 05:24:57;;;;;;;13.38;9.93;;;;;;;11.15;67.48;98713.63;4406931;32;33767;-68
2023/10/19 05:27:25;;;;;;;21.87;8.43;;;;;;;11.30;67.32;98710.47;4405683;32;34618;-68
2023/10/19 05:29:52;;;;;;;18.58;10.98;;;;;;;11.04;68.29;98704.87;4405214;32;34731;-67
2023/10/19 05:32:20;;;;;;;16.10;8.48;;;;;;;10.82;68.80;98706.03;4405696;32;33776;-68
2023/10/19 05:34:48;;;;;;;14.27;8.70;;;;;;;10.81;68.76;98707.03;4399650;32;33358;-67
2023/10/19 05:37:17;;;;;;;12.05;5.80;;;;;;;11.09;68.01;98710.66;4402297;32;34105;-67
2023/10/19 05:39:45;;;;;;;15.50;7.15;;;;;;;11.21;67.62;98714.88;4405417;32;33168;-67
2023/10/19 05:42:12;;;;;;;17.92;11.57;;;;;;;10.57;69.74;98713.66;4405361;32;33361;-68
2023/10/19 05:44:40;;;;;;;13.70;9.50;;;;;;;10.99;68.58;98708.00;4405005;32;35109;-68
2023/10/19 05:47:08;;;;;;;13.30;8.98;;;;;;;11.16;68.12;98709.09;4405798;32;35282;-65
2023/10/19 05:49:35;;;;;;;14.50;8.15;;;;;;;11.01;68.47;98700.69;4406813;32;33214;-65
2023/10/19 05:52:03;;;;;;;15.82;8.52;;;;;;;11.21;68.50;98700.66;4405755;32;35019;-65
2023/10/19 05:54:31;;;;;;;18.50;11.90;;;;;;;11.14;68.41;98695.88;4397961;32;34076;-65
2023/10/19 05:56:59;;;;;;;14.90;8.88;;;;;;;11.14;68.46;98703.91;4404664;32;34290;-65
2023/10/19 05:59:29;;;;;;;11.18;7.43;;;;;;;11.28;67.75;98705.28;4404721;32;34155;-66
2023/10/19 06:01:57;;;;;;;11.98;7.00;;;;;;;11.20;68.20;98710.50;4404262;32;34096;-66
2023/10/19 06:04:25;;;;;;;17.98;10.80;;;;;;;11.48;67.07;98710.59;4401219;32;35352;-65
2023/10/19 06:06:53;;;;;;;13.02;7.93;;;;;;;11.14;68.06;98706.59;4397251;32;34967;-69
2023/10/19 06:09:27;;;;;;;14.10;7.53;;;;;;;11.13;68.36;98718.25;4403824;32;33497;-67
2023/10/19 06:11:55;;;;;;;11.00;6.73;;;;;;;10.92;68.86;98705.06;4398687;32;33993;-67
2023/10/19 06:14:23;;;;;;;13.25;7.90;;;;;;;10.95;68.86;98699.41;4402368;32;33756;-67
2023/10/19 06:16:52;;;;;;;17.80;8.63;;;;;;;10.65;70.12;98699.56;4405256;32;34022;-68
2023/10/19 06:19:20;;;;;;;13.20;7.60;;;;;;;10.57;70.57;98704.78;4391864;32;33566;-66
2023/10/19 06:21:50;;;;;;;10.68;8.02;;;;;;;10.64;70.25;98692.53;4398576;32;33662;-72
2023/10/19 06:24:18;;;;;;;15.25;8.90;;;;;;;11.00;69.32;98696.28;4401372;32;33916;-67
2023/10/19 06:26:46;;;;;;;12.10;7.93;;;;;;;10.78;70.14;98685.88;4404154;32;33641;-67
2023/10/19 06:29:14;;;;;;;11.77;7.57;;;;;;;11.27;68.32;98678.62;4403018;32;33629;-67
2023/10/19 06:31:43;;;;;;;17.48;10.30;;;;;;;11.32;67.99;98689.75;4405418;32;33534;-68
2023/10/19 06:34:11;;;;;;;11.07;7.75;;;;;;;11.17;68.62;98676.84;4402753;32;33789;-66
2023/10/19 06:36:39;;;;;;;13.48;8.48;;;;;;;11.33;67.90;98673.56;4402555;32;35322;-66
2023/10/19 06:39:08;;;;;;;26.87;12.00;;;;;;;11.00;69.20;98680.22;4402992;32;34465;-66
2023/10/19 06:41:35;;;;;;;21.65;8.88;;;;;;;10.73;70.15;98687.16;4401003;32;32252;-66
2023/10/19 06:44:03;;;;;;;24.35;10.98;;;;;;;11.23;68.20;98679.91;4402033;32;34869;-67
2023/10/19 06:46:31;;;;;;;18.08;9.52;;;;;;;11.15;68.64;98676.13;4403435;32;34007;-67
2023/10/19 06:49:00;;;;;;;16.92;10.55;;;;;;;11.09;68.72;98674.03;4403911;32;33273;-67
2023/10/19 06:51:29;;;;;;;14.90;8.65;;;;;;;11.15;68.64;98669.94;4392276;32;33777;-67
2023/10/19 06:53:57;;;;;;;17.42;8.88;;;;;;;11.07;69.12;98678.66;4403636;32;34940;-67
2023/10/19 06:56:26;;;;;;;21.10;9.40;;;;;;;11.47;67.88;98669.56;4404445;32;34725;-67
2023/10/19 06:58:53;;;;;;;16.98;10.50;;;;;;;11.47;67.58;98669.56;4400657;32;33777;-66
2023/10/19 07:01:25;;;;;;;18.10;10.48;;;;;;;11.37;67.90;98666.06;4401223;32;34135;-68
2023/10/19 07:03:53;;;;;;;16.52;9.77;;;;;;;11.48;67.53;98671.22;4401364;32;33642;-68
2023/10/19 07:06:21;;;;;;;18.48;8.25;;;;;;;11.45;68.08;98668.84;4404950;32;34996;-68
2023/10/19 07:08:49;;;;;;;17.00;10.70;;;;;;;11.62;67.42;98662.72;4404978;32;35174;-68
2023/10/19 07:11:17;;;;;;;19.87;10.80;;;;;;;11.42;67.82;98664.63;4402452;32;33544;-68
2023/10/19 07:13:45;;;;;;;14.93;8.55;;;;;;;11.30;68.08;98655.09;4398615;32;35481;-67
2023/10/19 07:16:12;;;;;;;17.40;8.95;;;;;;;11.24;68.65;98653.00;4402287;32;34082;-68
2023/10/19 07:18:41;;;;;;;18.10;9.23;;;;;;;11.25;68.94;98651.16;4398889;32;33552;-68
2023/10/19 07:21:09;;;;;;;10.35;7.10;;;;;;;10.94;69.94;98659.37;4403103;32;33591;-68
2023/10/19 07:23:38;;;;;;;23.90;9.23;;;;;;;11.31;68.71;98643.38;4402623;32;33916;-67
2023/10/19 07:26:06;;;;;;;11.93;7.07;;;;;;;11.05;69.52;98655.72;4404360;32;33721;-68
2023/10/19 07:28:34;;;;;;;17.58;8.30;;;;;;;10.95;70.49;98655.75;4405385;32;34623;-68
2023/10/19 07:31:15;;;;;;;10.48;7.85;;;;;;;11.22;69.23;98654.97;4401256;32;35355;-68
2023/10/19 07:33:45;;;;;;;16.33;9.82;;;;;;;10.79;71.25;98642.94;4403605;32;35016;-68
2023/10/19 07:36:14;;;;;;;20.15;8.93;;;;;;;11.28;68.93;98640.16;4402510;32;34278;-67
2023/10/19 07:38:46;;;;;;;10.68;5.37;;;;;;;11.06;69.81;98641.34;4401422;32;33484;-67
2023/10/19 07:41:14;;;;;;;17.20;9.27;;;;;;;11.18;69.43;98635.66;4389347;32;33395;-68
2023/10/19 07:43:43;;;;;;;14.52;8.68;;;;;;;10.34;72.21;98626.63;4402317;32;34207;-68
2023/10/19 07:46:11;;;;;;;14.50;7.12;;;;;;;10.70;71.75;98633.09;4402676;32;35112;-67
2023/10/19 07:48:40;;;;;;;14.27;9.15;;;;;;;10.90;70.87;98628.53;4401973;32;34764;-68
2023/10/19 07:51:11;;;;;;;17.98;7.82;;;;;;;10.52;72.84;98616.06;4403511;32;33718;-69
2023/10/19 07:53:39;;;;;;;12.13;8.50;;;;;;;10.87;71.38;98620.78;4401140;32;34009;-69
2023/10/19 07:56:08;;;;;;;14.10;6.78;;;;;;;11.07;71.06;98617.06;4401321;32;34631;-68
2023/10/19 07:58:35;;;;;;;11.60;7.35;;;;;;;11.36;70.11;98608.97;4403712;32;34360;-69
2023/10/19 08:01:03;;;;;;;15.30;9.15;;;;;;;11.46;69.76;98600.00;4402465;32;34073;-69
2023/10/19 08:03:31;;;;;;;13.70;9.45;;;;;;;11.11;71.14;98606.94;4403129;32;34793;-68
2023/10/19 08:05:58;;;;;;;16.87;10.35;;;;;;;11.33;70.48;98595.00;4398619;32;33689;-68
2023/10/19 08:08:33;;;;;;;14.23;8.02;;;;;;;11.48;69.35;98590.00;4402171;32;33792;-67
2023/10/19 08:11:01;;;;;;;15.38;9.38;;;;;;;11.26;70.08;98601.94;4405358;32;34051;-68
2023/10/19 08:13:29;;;;;;;16.65;8.10;;;;;;;11.30;70.05;98593.47;4404878;32;34347;-68
2023/10/19 08:15:59;;;;;;;9.32;7.20;;;;;;;11.10;70.87;98605.22;4400291;32;34124;-68
2023/10/19 08:18:30;;;;;;;9.07;6.53;;;;;;;11.39;69.98;98597.94;4404063;32;33152;-67
2023/10/19 08:20:58;;;;;;;18.33;9.32;;;;;;;11.46;69.84;98595.53;4405953;32;33808;-69
2023/10/19 08:23:27;;;;;;;8.32;5.43;;;;;;;11.56;69.95;98604.34;4404135;32;33751;-69
2023/10/19 08:25:55;;;;;;;8.07;5.68;;;;;;;11.53;70.09;98593.94;4391314;32;34796;-69
2023/10/19 08:28:24;;;;;;;10.00;5.72;;;;;;;11.62;69.31;98595.72;4406082;32;33539;-69
2023/10/19 08:31:00;;;;;;;6.25;4.57;;;;;;;11.49;69.52;98586.31;4402408;32;33708;-69
2023/10/19 08:33:29;;;;;;;16.17;7.35;;;;;;;11.62;69.31;98579.66;4403031;32;33376;-68
2023/10/19 08:35:59;;;;;;;9.55;5.37;;;;;;;11.40;69.70;98578.19;4403829;32;34121;-69
2023/10/19 08:38:28;;;;;;;8.48;5.12;;;;;;;11.35;70.35;98574.28;4396653;32;33550;-69
2023/10/19 08:40:56;;;;;;;9.30;6.28;;;;;;;11.64;69.29;98569.59;4399669;32;33944;-68
2023/10/19 08:43:24;;;;;;;5.70;3.95;;;;;;;11.49;70.18;98575.59;4388582;32;34279;-67
2023/10/19 08:45:54;;;;;;;9.93;5.90;;;;;;;11.55;70.19;98565.12;4401871;32;34423;-69
2023/10/19 08:48:22;;;;;;;25.08;7.53;;;;;;;11.62;70.02;98557.34;4402793;32;31812;-68
2023/10/19 08:50:50;;;;;;;16.30;7.35;;;;;;;11.65;69.47;98552.53;4401189;32;35028;-69
2023/10/19 08:53:19;;;;;;;8.45;5.75;;;;;;;11.63;70.15;98557.19;4371848;32;35135;-68
2023/10/19 08:55:49;;;;;;;10.35;7.50;;;;;;;11.74;69.83;98550.78;4378162;32;34587;-69
2023/10/19 08:58:19;;;;;;;13.98;7.35;;;;;;;11.86;69.76;98546.09;4377312;32;33197;-69
2023/10/19 09:00:53;;;;;;;17.77;7.55;;;;;;;12.05;69.37;98539.72;4359069;32;33438;-68
2023/10/19 09:03:24;;;;;;;14.60;8.00;;;;;;;11.99;69.05;98541.19;4379027;32;32711;-68
2023/10/19 09:05:54;;;;;;;10.18;6.75;;;;;;;12.14;69.65;98546.88;4339780;33;34908;-69
2023/10/19 09:08:22;;;;;;;11.20;7.18;;;;;;;12.37;68.33;98546.38;4330641;33;34467;-70
2023/10/19 09:10:53;;;;;;;9.52;5.57;;;;;;;12.05;68.84;98534.38;4327673;33;34358;-69
2023/10/19 09:13:22;;;;;;;12.95;6.87;;;;;;;11.88;69.87;98550.31;4330375;33;33819;-69
2023/10/19 09:15:55;;;;;;;16.08;7.75;;;;;;;12.16;69.60;98536.81;4335801;33;33862;-70
2023/10/19 09:18:28;;;;;;;13.88;7.65;;;;;;;12.42;67.83;98536.00;4337389;33;34273;-68
2023/10/19 09:21:07;;;;;;;17.30;8.40;;;;;;;12.29;68.84;98539.09;4339132;33;34570;-69
2023/10/19 09:23:36;;;;;;;11.43;6.65;;;;;;;12.44;68.17;98534.03;4334210;32;33988;-68
2023/10/19 09:26:07;;;;;;;9.07;6.70;;;;;;;12.35;68.75;98547.38;4354809;32;33792;-68
2023/10/19 09:28:37;;;;;;;9.48;5.18;;;;;;;12.80;67.57;98546.34;4355254;32;34591;-68
2023/10/19 09:31:09;;;;;;;13.10;9.07;;;;;;;12.92;66.33;98536.19;4356429;32;33576;-69
2023/10/19 09:33:40;;;;;;;10.65;6.20;;;;;;;12.61;67.62;98543.88;4358714;32;34817;-68
2023/10/19 09:36:16;;;;;;;14.48;8.15;;;;;;;12.38;68.31;98542.69;4364209;32;35087;-68
2023/10/19 09:38:47;;;;;;;9.55;7.45;;;;;;;12.31;68.76;98535.25;4403196;32;34355;-67
2023/10/19 09:41:21;;;;;;;11.35;7.15;;;;;;;12.17;68.98;98533.16;4403821;32;33307;-68
2023/10/19 09:43:50;;;;;;;14.77;7.40;;;;;;;12.23;69.04;98532.53;4399052;32;34121;-67
2023/10/19 09:46:23;;;;;;;11.25;6.32;;;;;;;12.34;68.72;98521.53;4399952;32;33778;-69
2023/10/19 09:48:52;;;;;;;19.35;7.32;;;;;;;12.67;67.96;98520.94;4403861;32;34327;-68
2023/10/19 09:51:20;;;;;;;9.48;6.28;;;;;;;12.46;68.23;98506.03;4403620;32;34342;-68
2023/10/19 09:53:57;;;;;;;11.12;5.97;;;;;;;12.08;69.71;98510.75;4402947;32;34069;-69
2023/10/19 09:56:30;;;;;;;19.48;7.95;;;;;;;12.45;68.89;98516.91;4395528;32;34010;-68
2023/10/19 09:59:02;;;;;;;11.27;6.87;;;;;;;12.67;67.79;98491.41;4395542;32;33188;-68
2023/10/19 10:02:10;;;;;;;11.43;6.95;;;;;;;12.70;68.36;98488.41;4385915;32;33833;-68
2023/10/19 10:04:40;;;;;;;14.40;7.82;;;;;;;13.23;66.72;98479.28;4404023;32;34826;-68
2023/10/19 10:07:09;;;;;;;14.57;10.15;;;;;;;13.11;66.46;98478.72;4404245;32;34877;-68
2023/10/19 10:09:45;;;;;;;11.38;7.85;;;;;;;13.04;66.63;98475.00;4396441;32;34590;-69
2023/10/19 10:12:24;;;;;;;14.48;8.10;;;;;;;12.64;67.93;98471.09;4402313;32;34717;-68
2023/10/19 10:14:58;;;;;;;20.75;9.15;;;;;;;12.99;66.44;98461.19;4402577;32;32501;-69
2023/10/19 10:17:27;;;;;;;17.77;8.18;;;;;;;12.86;67.04;98460.81;4400587;32;35089;-71
2023/10/19 10:20:06;;;;;;;13.85;8.82;;;;;;;12.58;69.06;98458.28;4400061;32;33723;-69
2023/10/19 10:22:34;;;;;;;13.55;7.15;;;;;;;12.87;68.07;98452.56;4400536;32;34253;-70
2023/10/19 10:25:01;;;;;;;15.38;8.50;;;;;;;12.52;69.41;98445.50;4403373;32;35201;-68
2023/10/19 10:27:30;;;;;;;17.37;10.00;;;;;;;12.76;69.15;98447.50;4406612;32;34998;-68
2023/10/19 10:29:59;;;;;;;16.87;9.90;;;;;;;13.17;68.31;98440.47;4403510;32;34603;-68
2023/10/19 10:32:52;;;;;;;19.15;9.02;;;;;;;13.59;67.08;98438.75;4403794;32;34077;-68
2023/10/19 10:35:43;;;;;;;9.00;6.20;;;;;;;13.53;66.33;98440.25;4400968;32;34700;-67
2023/10/19 10:38:14;;;;;;;16.90;7.28;;;;;;;13.24;67.74;98430.75;4331663;33;34172;-67
2023/10/19 10:40:51;;;;;;;16.55;8.88;;;;;;;13.64;66.09;98431.87;4336514;33;33799;-69
2023/10/19 10:43:21;;;;;;;18.50;12.02;;;;;;;14.17;64.73;98425.13;4331683;32;34643;-67
2023/10/19 10:45:49;;;;;;;16.30;9.80;;;;;;;14.09;65.06;98409.03;4332453;32;33908;-67
2023/10/19 10:48:19;;;;;;;18.77;13.32;;;;;;;14.72;63.15;98417.31;4326217;33;34974;-66
2023/10/19 10:50:46;;;;;;;17.08;10.45;;;;;;;14.58;62.37;98405.41;4317992;33;33428;-67
2023/10/19 10:53:17;;;;;;;21.17;12.32;;;;;;;13.78;65.16;98406.16;4321853;33;33606;-67
2023/10/19 10:55:45;;;;;;;17.52;9.88;;;;;;;13.70;65.83;98409.66;4321996;33;35047;-67
2023/10/19 10:58:17;;;;;;;16.12;11.93;;;;;;;13.51;66.54;98399.22;4328106;32;33353;-69
2023/10/19 11:00:52;;;;;;;21.35;12.25;;;;;;;14.05;65.00;98390.69;4325810;33;33593;-67
2023/10/19 11:03:21;;;;;;;18.50;12.68;;;;;;;13.75;66.33;98396.56;4327822;33;33702;-68
2023/10/19 11:05:49;;;;;;;19.85;7.57;;;;;;;14.03;65.92;98398.06;4328655;33;35156;-68
2023/10/19 11:08:20;;;;;;;20.00;11.93;;;;;;;14.73;64.50;98394.75;4327144;33;32929;-67
2023/10/19 11:10:48;;;;;;;20.00;12.20;;;;;;;14.03;65.95;98387.31;4330568;33;33318;-68
2023/10/19 11:13:18;;;;;;;22.17;12.25;;;;;;;14.39;65.00;98383.22;4330407;32;33885;-69
2023/10/19 11:15:50;;;;;;;17.67;11.12;;;;;;;14.31;65.34;98380.53;4376238;32;33516;-69
2023/10/19 11:18:39;;;;;;;19.25;10.77;;;;;;;14.32;65.15;98370.63;4381419;32;35052;-69
2023/10/19 11:21:11;;;;;;;18.45;10.02;;;;;;;14.83;63.96;98374.69;4402463;32;33734;-69
2023/10/19 11:23:40;;;;;;;15.48;11.15;;;;;;;15.13;63.15;98364.09;4402114;32;34157;-70
2023/10/19 11:26:10;;;;;;;16.08;8.70;;;;;;;14.98;62.69;98366.69;4361742;32;33889;-71
2023/10/19 11:28:51;;;;;;;11.55;7.32;;;;;;;14.81;63.28;98371.31;4362553;32;34305;-69
2023/10/19 11:31:23;;;;;;;11.93;9.25;;;;;;;14.77;63.52;98367.31;4360298;32;33436;-69
2023/10/19 11:33:52;;;;;;;12.52;7.55;;;;;;;14.60;64.68;98358.44;4362955;32;33544;-69
2023/10/19 11:36:22;;;;;;;15.05;8.82;;;;;;;14.79;64.09;98350.97;4361098;32;33787;-71
2023/10/19 11:38:51;;;;;;;12.93;7.10;;;;;;;14.82;63.74;98343.38;4365483;32;33898;-70
2023/10/19 11:41:19;;;;;;;16.37;8.70;;;;;;;14.69;64.53;98345.78;4373923;32;33631;-69
2023/10/19 11:43:48;;;;;;;19.55;9.38;;;;;;;14.70;64.79;98341.25;4374983;32;33210;-68
2023/10/19 11:46:25;;;;;;;21.05;11.73;;;;;;;14.41;65.28;98326.50;4378428;32;34196;-69
2023/10/19 11:48:53;;;;;;;12.90;7.43;;;;;;;14.49;65.19;98334.56;4369375;32;34172;-69
2023/10/19 11:51:20;;;;;;;15.95;10.90;;;;;;;14.49;65.35;98339.13;4370588;32;34362;-69
2023/10/19 11:53:48;;;;;;;18.00;10.75;;;;;;;14.68;64.65;98342.25;4385457;32;34049;-69
2023/10/19 11:56:16;;;;;;;15.60;8.57;;;;;;;14.82;64.78;98337.16;4373054;32;32803;-69
2023/10/19 11:58:46;;;;;;;12.18;7.45;;;;;;;15.18;63.90;98339.31;4406996;32;33839;-69
2023/10/19 12:01:16;;;;;;;13.40;8.85;;;;;;;15.37;62.86;98328.03;4401809;32;33806;-69
2023/10/19 12:03:46;;;;;;;14.87;9.82;;;;;;;15.36;62.60;98319.13;4404758;32;34396;-69
2023/10/19 12:06:23;;;;;;;13.13;9.05;;;;;;;14.78;64.54;98320.50;4400162;32;35716;-69
2023/10/19 12:08:51;;;;;;;17.25;9.93;;;;;;;15.04;64.44;98316.66;4402006;32;35239;-69